sensor_id;sensor_type;location;lat;lon;timestamp;pressure;altitude;pressure_sealevel;temperature;humidity
59274;BME280;45044;41.572;24.730;2023-05-09T00:01:22;91553.63;;;9.74;100.00
59274;BME280;45044;41.572;24.730;2023-05-09T00:03:50;91554.91;;;9.94;100.00
59274;BME280;45044;41.572;24.730;2023-05-09T00:06:17;91542.47;;;9.88;100.00
59274;BME280;45044;41.572;24.730;2023-05-09T00:08:45;91549.16;;;9.81;100.00
59274;BME280;45044;41.572;24.730;2023-05-09T00:11:11;91537.13;;;9.77;100.00
59274;BME280;45044;41.572;24.730;2023-05-09T00:13:38;91543.84;;;9.74;100.00
59274;BME280;45044;41.572;24.730;2023-05-09T00:16:05;91545.00;;;9.77;100.00
59274;BME280;45044;41.572;24.730;2023-05-09T00:18:32;91552.81;;;9.69;100.00
59274;BME280;45044;41.572;24.730;2023-05-09T00:20:59;91548.19;;;9.55;100.00
59274;BME280;45044;41.572;24.730;2023-05-09T00:23:27;91546.38;;;9.60;100.00
59274;BME280;45044;41.572;24.730;2023-05-09T00:25:54;91542.59;;;9.57;100.00
59274;BME280;45044;41.572;24.730;2023-05-09T00:28:21;91540.66;;;9.50;100.00
59274;BME280;45044;41.572;24.730;2023-05-09T00:30:48;91533.53;;;9.51;100.00
59274;BME280;45044;41.572;24.730;2023-05-09T00:33:14;91538.81;;;9.54;100.00
59274;BME280;45044;41.572;24.730;2023-05-09T00:35:41;91542.91;;;9.52;100.00
59274;BME280;45044;41.572;24.730;2023-05-09T00:38:08;91541.59;;;9.73;100.00
59274;BME280;45044;41.572;24.730;2023-05-09T00:40:34;91532.41;;;9.52;100.00
59274;BME280;45044;41.572;24.730;2023-05-09T00:43:01;91542.25;;;9.62;100.00
59274;BME280;45044;41.572;24.730;2023-05-09T00:45:28;91535.91;;;9.67;100.00
59274;BME280;45044;41.572;24.730;2023-05-09T00:47:54;91533.25;;;9.63;100.00
59274;BME280;45044;41.572;24.730;2023-05-09T00:50:22;91543.88;;;9.78;100.00
59274;BME280;45044;41.572;24.730;2023-05-09T00:52:50;91541.19;;;9.70;100.00
59274;BME280;45044;41.572;24.730;2023-05-09T00:55:17;91546.19;;;9.83;100.00
59274;BME280;45044;41.572;24.730;2023-05-09T00:57:44;91545.78;;;9.77;100.00
59274;BME280;45044;41.572;24.730;2023-05-09T01:00:11;91543.81;;;9.70;100.00
59274;BME280;45044;41.572;24.730;2023-05-09T01:02:44;91528.16;;;9.81;100.00
59274;BME280;45044;41.572;24.730;2023-05-09T01:05:12;91539.47;;;9.86;100.00
59274;BME280;45044;41.572;24.730;2023-05-09T01:10:49;91548.38;;;9.74;100.00
59274;BME280;45044;41.572;24.730;2023-05-09T01:13:27;91546.00;;;9.61;100.00
59274;BME280;45044;41.572;24.730;2023-05-09T01:16:34;91550.53;;;9.64;100.00
59274;BME280;45044;41.572;24.730;2023-05-09T01:19:26;91545.22;;;9.57;100.00
59274;BME280;45044;41.572;24.730;2023-05-09T01:21:57;91552.03;;;9.65;100.00
59274;BME280;45044;41.572;24.730;2023-05-09T01:25:20;91541.16;;;9.67;100.00
59274;BME280;45044;41.572;24.730;2023-05-09T01:27:41;91543.13;;;9.74;100.00
59274;BME280;45044;41.572;24.730;2023-05-09T01:30:14;91546.53;;;9.81;100.00
59274;BME280;45044;41.572;24.730;2023-05-09T01:32:42;91549.53;;;9.80;100.00
59274;BME280;45044;41.572;24.730;2023-05-09T01:35:13;91555.22;;;9.86;100.00
59274;BME280;45044;41.572;24.730;2023-05-09T01:37:53;91550.72;;;9.86;100.00
59274;BME280;45044;41.572;24.730;2023-05-09T01:40:22;91545.06;;;9.84;100.00
59274;BME280;45044;41.572;24.730;2023-05-09T01:42:57;91542.78;;;9.79;100.00
59274;BME280;45044;41.572;24.730;2023-05-09T01:45:26;91549.09;;;9.74;100.00
59274;BME280;45044;41.572;24.730;2023-05-09T01:47:54;91538.41;;;9.49;100.00
59274;BME280;45044;41.572;24.730;2023-05-09T01:50:22;91549.25;;;9.51;100.00
59274;BME280;45044;41.572;24.730;2023-05-09T01:52:53;91550.09;;;9.58;100.00
59274;BME280;45044;41.572;24.730;2023-05-09T01:55:24;91556.84;;;9.56;100.00
59274;BME280;45044;41.572;24.730;2023-05-09T01:57:52;91553.38;;;9.48;100.00
59274;BME280;45044;41.572;24.730;2023-05-09T02:00:21;91556.69;;;9.41;100.00
59274;BME280;45044;41.572;24.730;2023-05-09T02:02:49;91558.56;;;9.41;100.00
59274;BME280;45044;41.572;24.730;2023-05-09T02:05:17;91551.03;;;9.39;100.00
59274;BME280;45044;41.572;24.730;2023-05-09T02:07:46;91554.03;;;9.38;100.00
59274;BME280;45044;41.572;24.730;2023-05-09T02:10:14;91554.28;;;9.29;100.00
59274;BME280;45044;41.572;24.730;2023-05-09T02:12:42;91560.50;;;9.48;100.00
59274;BME280;45044;41.572;24.730;2023-05-09T02:15:09;91562.06;;;9.52;100.00
59274;BME280;45044;41.572;24.730;2023-05-09T02:17:36;91556.28;;;9.39;100.00
59274;BME280;45044;41.572;24.730;2023-05-09T02:20:04;91555.34;;;9.20;100.00
59274;BME280;45044;41.572;24.730;2023-05-09T02:22:31;91562.56;;;9.31;100.00
59274;BME280;45044;41.572;24.730;2023-05-09T02:24:57;91556.22;;;9.32;100.00
59274;BME280;45044;41.572;24.730;2023-05-09T02:27:26;91549.88;;;9.37;100.00
59274;BME280;45044;41.572;24.730;2023-05-09T02:29:55;91555.53;;;9.39;100.00
59274;BME280;45044;41.572;24.730;2023-05-09T02:32:27;91557.72;;;9.33;100.00
59274;BME280;45044;41.572;24.730;2023-05-09T02:34:54;91557.31;;;9.31;100.00
59274;BME280;45044;41.572;24.730;2023-05-09T02:37:24;91557.72;;;9.33;100.00
59274;BME280;45044;41.572;24.730;2023-05-09T02:39:51;91557.28;;;9.27;100.00
59274;BME280;45044;41.572;24.730;2023-05-09T02:42:21;91561.56;;;9.43;100.00
59274;BME280;45044;41.572;24.730;2023-05-09T02:44:51;91566.00;;;9.35;100.00
59274;BME280;45044;41.572;24.730;2023-05-09T02:47:18;91551.78;;;9.40;100.00
59274;BME280;45044;41.572;24.730;2023-05-09T02:49:45;91560.19;;;9.18;100.00
59274;BME280;45044;41.572;24.730;2023-05-09T02:52:12;91558.75;;;9.25;100.00
59274;BME280;45044;41.572;24.730;2023-05-09T02:54:39;91561.31;;;9.17;100.00
59274;BME280;45044;41.572;24.730;2023-05-09T02:57:05;91576.31;;;9.20;100.00
59274;BME280;45044;41.572;24.730;2023-05-09T02:59:32;91581.56;;;9.20;100.00
59274;BME280;45044;41.572;24.730;2023-05-09T03:01:59;91577.69;;;9.07;100.00
59274;BME280;45044;41.572;24.730;2023-05-09T03:04:26;91584.59;;;9.22;100.00
59274;BME280;45044;41.572;24.730;2023-05-09T03:06:53;91586.13;;;9.27;100.00
59274;BME280;45044;41.572;24.730;2023-05-09T03:09:19;91585.44;;;9.30;100.00
59274;BME280;45044;41.572;24.730;2023-05-09T03:11:46;91585.84;;;9.36;100.00
59274;BME280;45044;41.572;24.730;2023-05-09T03:14:13;91590.81;;;9.41;100.00
59274;BME280;45044;41.572;24.730;2023-05-09T03:16:40;91597.06;;;9.33;100.00
59274;BME280;45044;41.572;24.730;2023-05-09T03:19:07;91597.47;;;9.35;100.00
59274;BME280;45044;41.572;24.730;2023-05-09T03:21:34;91598.19;;;9.32;100.00
59274;BME280;45044;41.572;24.730;2023-05-09T03:24:01;91607.97;;;9.35;100.00
59274;BME280;45044;41.572;24.730;2023-05-09T03:26:30;91602.69;;;9.31;100.00
59274;BME280;45044;41.572;24.730;2023-05-09T03:28:57;91606.66;;;9.21;100.00
59274;BME280;45044;41.572;24.730;2023-05-09T03:31:23;91603.03;;;9.30;100.00
59274;BME280;45044;41.572;24.730;2023-05-09T03:33:50;91608.28;;;9.30;100.00
59274;BME280;45044;41.572;24.730;2023-05-09T03:36:17;91612.22;;;9.16;100.00
59274;BME280;45044;41.572;24.730;2023-05-09T03:38:44;91609.88;;;9.07;100.00
59274;BME280;45044;41.572;24.730;2023-05-09T03:41:15;91608.38;;;9.06;100.00
59274;BME280;45044;41.572;24.730;2023-05-09T03:43:42;91621.44;;;9.03;100.00
59274;BME280;45044;41.572;24.730;2023-05-09T03:46:09;91620.41;;;9.11;100.00
59274;BME280;45044;41.572;24.730;2023-05-09T03:48:35;91626.56;;;9.22;100.00
59274;BME280;45044;41.572;24.730;2023-05-09T03:51:04;91619.88;;;9.29;100.00
59274;BME280;45044;41.572;24.730;2023-05-09T03:53:31;91624.44;;;9.32;100.00
59274;BME280;45044;41.572;24.730;2023-05-09T03:55:58;91627.88;;;9.09;100.00
59274;BME280;45044;41.572;24.730;2023-05-09T03:58:24;91627.88;;;9.09;100.00
59274;BME280;45044;41.572;24.730;2023-05-09T04:00:51;91619.69;;;9.14;100.00
59274;BME280;45044;41.572;24.730;2023-05-09T04:03:19;91626.38;;;9.08;100.00
59274;BME280;45044;41.572;24.730;2023-05-09T04:05:46;91626.78;;;9.10;100.00
59274;BME280;45044;41.572;24.730;2023-05-09T04:08:13;91630.91;;;9.11;100.00
59274;BME280;45044;41.572;24.730;2023-05-09T04:10:39;91630.41;;;9.02;100.00
59274;BME280;45044;41.572;24.730;2023-05-09T04:13:06;91627.53;;;9.10;100.00
59274;BME280;45044;41.572;24.730;2023-05-09T04:15:33;91631.72;;;9.15;100.00
59274;BME280;45044;41.572;24.730;2023-05-09T04:18:00;91628.06;;;9.23;100.00
59274;BME280;45044;41.572;24.730;2023-05-09T04:20:26;91633.41;;;9.31;100.00
59274;BME280;45044;41.572;24.730;2023-05-09T04:22:53;91627.38;;;9.27;100.00
59274;BME280;45044;41.572;24.730;2023-05-09T04:25:21;91628.06;;;9.23;100.00
59274;BME280;45044;41.572;24.730;2023-05-09T04:27:47;91624.44;;;9.32;100.00
59274;BME280;45044;41.572;24.730;2023-05-09T04:30:14;91623.09;;;9.15;100.00
59274;BME280;45044;41.572;24.730;2023-05-09T04:32:41;91633.88;;;9.09;100.00
59274;BME280;45044;41.572;24.730;2023-05-09T04:35:12;91634.59;;;9.06;100.00
59274;BME280;45044;41.572;24.730;2023-05-09T04:37:39;91638.91;;;8.91;100.00
59274;BME280;45044;41.572;24.730;2023-05-09T04:40:07;91639.72;;;8.95;100.00
59274;BME280;45044;41.572;24.730;2023-05-09T04:42:34;91639.19;;;9.13;100.00
59274;BME280;45044;41.572;24.730;2023-05-09T04:45:01;91631.63;;;9.08;100.00
59274;BME280;45044;41.572;24.730;2023-05-09T04:47:28;91638.00;;;9.10;100.00
59274;BME280;45044;41.572;24.730;2023-05-09T04:49:55;91636.97;;;9.15;100.00
59274;BME280;45044;41.572;24.730;2023-05-09T04:52:22;91629.06;;;9.12;100.00
59274;BME280;45044;41.572;24.730;2023-05-09T04:54:48;91640.25;;;9.08;100.00
59274;BME280;45044;41.572;24.730;2023-05-09T04:57:16;91643.66;;;9.13;100.00
59274;BME280;45044;41.572;24.730;2023-05-09T04:59:44;91640.16;;;9.32;100.00
59274;BME280;45044;41.572;24.730;2023-05-09T05:02:11;91647.44;;;9.46;100.00
59274;BME280;45044;41.572;24.730;2023-05-09T05:04:38;91637.91;;;9.30;100.00
59274;BME280;45044;41.572;24.730;2023-05-09T05:07:05;91633.41;;;9.31;100.00
59274;BME280;45044;41.572;24.730;2023-05-09T05:09:31;91637.91;;;9.30;100.00
59274;BME280;45044;41.572;24.730;2023-05-09T05:11:58;91649.63;;;9.40;100.00
59274;BME280;45044;41.572;24.730;2023-05-09T05:14:29;91642.25;;;9.19;100.00
59274;BME280;45044;41.572;24.730;2023-05-09T05:16:56;91642.31;;;9.22;100.00
59274;BME280;45044;41.572;24.730;2023-05-09T05:19:23;91646.97;;;9.37;100.00
59274;BME280;45044;41.572;24.730;2023-05-09T05:21:49;91643.94;;;9.34;100.00
59274;BME280;45044;41.572;24.730;2023-05-09T05:24:16;91656.69;;;9.36;100.00
59274;BME280;45044;41.572;24.730;2023-05-09T05:26:43;91649.25;;;9.42;100.00
59274;BME280;45044;41.572;24.730;2023-05-09T05:29:09;91660.47;;;9.39;100.00
59274;BME280;45044;41.572;24.730;2023-05-09T05:31:37;91659.84;;;9.49;100.00
59274;BME280;45044;41.572;24.730;2023-05-09T05:34:08;91659.09;;;9.49;100.00
59274;BME280;45044;41.572;24.730;2023-05-09T05:36:35;91651.53;;;9.43;100.00
59274;BME280;45044;41.572;24.730;2023-05-09T05:39:02;91649.97;;;9.39;100.00
59274;BME280;45044;41.572;24.730;2023-05-09T05:41:29;91652.16;;;9.33;100.00
59274;BME280;45044;41.572;24.730;2023-05-09T05:43:55;91643.25;;;9.38;100.00
59274;BME280;45044;41.572;24.730;2023-05-09T05:46:22;91652.25;;;9.40;100.00
59274;BME280;45044;41.572;24.730;2023-05-09T05:48:49;91655.28;;;9.42;100.00
59274;BME280;45044;41.572;24.730;2023-05-09T05:51:16;91664.34;;;9.49;100.00
59274;BME280;45044;41.572;24.730;2023-05-09T05:53:43;91658.31;;;9.44;100.00
59274;BME280;45044;41.572;24.730;2023-05-09T05:56:09;91667.63;;;9.42;100.00
59274;BME280;45044;41.572;24.730;2023-05-09T05:58:36;91668.13;;;9.51;100.00
59274;BME280;45044;41.572;24.730;2023-05-09T06:01:03;91661.06;;;9.55;100.00
59274;BME280;45044;41.572;24.730;2023-05-09T06:03:30;91665.13;;;9.53;100.00
59274;BME280;45044;41.572;24.730;2023-05-09T06:05:58;91664.50;;;9.63;100.00
59274;BME280;45044;41.572;24.730;2023-05-09T06:08:24;91662.69;;;9.67;100.00
59274;BME280;45044;41.572;24.730;2023-05-09T06:10:51;91661.00;;;9.52;100.00
59274;BME280;45044;41.572;24.730;2023-05-09T06:13:18;91660.88;;;9.41;100.00
59274;BME280;45044;41.572;24.730;2023-05-09T06:15:46;91663.31;;;9.57;100.00
59274;BME280;45044;41.572;24.730;2023-05-09T06:18:12;91669.13;;;9.39;100.00
59274;BME280;45044;41.572;24.730;2023-05-09T06:20:39;91662.75;;;9.40;100.00
59274;BME280;45044;41.572;24.730;2023-05-09T06:23:06;91669.13;;;9.74;100.00
59274;BME280;45044;41.572;24.730;2023-05-09T06:25:33;91670.72;;;9.82;100.00
59274;BME280;45044;41.572;24.730;2023-05-09T06:27:59;91672.03;;;9.65;100.00
59274;BME280;45044;41.572;24.730;2023-05-09T06:30:26;91666.88;;;9.72;100.00
59274;BME280;45044;41.572;24.730;2023-05-09T06:32:53;91672.06;;;9.68;100.00
59274;BME280;45044;41.572;24.730;2023-05-09T06:35:20;91665.69;;;9.69;100.00
59274;BME280;45044;41.572;24.730;2023-05-09T06:37:47;91663.97;;;9.81;100.00
59274;BME280;45044;41.572;24.730;2023-05-09T06:40:15;91658.78;;;9.88;100.00
59274;BME280;45044;41.572;24.730;2023-05-09T06:42:43;91669.22;;;9.81;100.00
59274;BME280;45044;41.572;24.730;2023-05-09T06:45:10;91666.66;;;9.88;100.00
59274;BME280;45044;41.572;24.730;2023-05-09T06:47:37;91664.00;;;9.85;100.00
59274;BME280;45044;41.572;24.730;2023-05-09T06:50:05;91660.34;;;9.97;100.00
59274;BME280;45044;41.572;24.730;2023-05-09T06:52:32;91657.47;;;10.09;100.00
59274;BME280;45044;41.572;24.730;2023-05-09T06:54:58;91666.00;;;9.99;100.00
59274;BME280;45044;41.572;24.730;2023-05-09T06:57:25;91669.91;;;10.16;100.00
59274;BME280;45044;41.572;24.730;2023-05-09T06:59:52;91666.59;;;10.23;100.00
59274;BME280;45044;41.572;24.730;2023-05-09T07:02:19;91664.41;;;10.28;100.00
59274;BME280;45044;41.572;24.730;2023-05-09T07:04:46;91652.94;;;10.06;100.00
59274;BME280;45044;41.572;24.730;2023-05-09T07:07:12;91647.50;;;9.88;100.00
59274;BME280;45044;41.572;24.730;2023-05-09T07:09:39;91655.91;;;10.01;100.00
59274;BME280;45044;41.572;24.730;2023-05-09T07:12:06;91661.13;;;9.97;100.00
59274;BME280;45044;41.572;24.730;2023-05-09T07:14:33;91666.88;;;10.10;100.00
59274;BME280;45044;41.572;24.730;2023-05-09T07:16:59;91667.16;;;10.01;100.00
59274;BME280;45044;41.572;24.730;2023-05-09T07:19:46;91664.66;;;10.12;100.00
59274;BME280;45044;41.572;24.730;2023-05-09T07:22:13;91663.94;;;10.19;100.00
59274;BME280;45044;41.572;24.730;2023-05-09T07:24:39;91672.69;;;10.34;100.00
59274;BME280;45044;41.572;24.730;2023-05-09T07:27:06;91671.97;;;10.34;100.00
59274;BME280;45044;41.572;24.730;2023-05-09T07:29:33;91670.03;;;10.69;100.00
59274;BME280;45044;41.572;24.730;2023-05-09T07:32:00;91670.09;;;10.83;100.00
59274;BME280;45044;41.572;24.730;2023-05-09T07:34:26;91674.16;;;10.73;100.00
59274;BME280;45044;41.572;24.730;2023-05-09T07:36:53;91665.22;;;10.85;100.00
59274;BME280;45044;41.572;24.730;2023-05-09T07:39:20;91683.72;;;11.00;100.00
59274;BME280;45044;41.572;24.730;2023-05-09T07:41:46;91684.97;;;11.13;100.00
59274;BME280;45044;41.572;24.730;2023-05-09T07:44:14;91677.81;;;11.10;100.00
59274;BME280;45044;41.572;24.730;2023-05-09T07:46:41;91686.75;;;11.02;100.00
59274;BME280;45044;41.572;24.730;2023-05-09T07:49:08;91676.16;;;10.91;100.00
59274;BME280;45044;41.572;24.730;2023-05-09T07:51:35;91676.09;;;10.80;100.00
59274;BME280;45044;41.572;24.730;2023-05-09T07:54:02;91672.84;;;10.49;100.00
59274;BME280;45044;41.572;24.730;2023-05-09T07:56:29;91677.81;;;10.19;100.00
59274;BME280;45044;41.572;24.730;2023-05-09T07:58:55;91682.19;;;10.46;100.00
59274;BME280;45044;41.572;24.730;2023-05-09T08:01:22;91676.47;;;10.37;100.00
59274;BME280;45044;41.572;24.730;2023-05-09T08:03:49;91669.31;;;10.30;100.00
59274;BME280;45044;41.572;24.730;2023-05-09T08:06:16;91663.59;;;10.21;100.00
59274;BME280;45044;41.572;24.730;2023-05-09T08:08:43;91653.81;;;10.17;100.00
59274;BME280;45044;41.572;24.730;2023-05-09T08:11:09;91674.88;;;10.25;100.00
59274;BME280;45044;41.572;24.730;2023-05-09T08:13:36;91668.97;;;10.35;100.00
59274;BME280;45044;41.572;24.730;2023-05-09T08:16:03;91674.13;;;10.24;100.00
59274;BME280;45044;41.572;24.730;2023-05-09T08:18:30;91679.44;;;10.32;100.00
59274;BME280;45044;41.572;24.730;2023-05-09T08:20:57;91675.66;;;10.29;100.00
59274;BME280;45044;41.572;24.730;2023-05-09T08:23:25;91677.72;;;10.05;100.00
59274;BME280;45044;41.572;24.730;2023-05-09T08:25:53;91685.22;;;10.06;100.00
59274;BME280;45044;41.572;24.730;2023-05-09T08:28:20;91671.84;;;10.19;100.00
59274;BME280;45044;41.572;24.730;2023-05-09T08:30:50;91675.22;;;9.85;100.00
59274;BME280;45044;41.572;24.730;2023-05-09T08:33:17;91680.56;;;9.92;100.00
59274;BME280;45044;41.572;24.730;2023-05-09T08:35:44;91674.34;;;10.08;100.00
59274;BME280;45044;41.572;24.730;2023-05-09T08:38:11;91675.31;;;9.92;100.00
59274;BME280;45044;41.572;24.730;2023-05-09T08:40:39;91667.84;;;9.94;100.00
59274;BME280;45044;41.572;24.730;2023-05-09T08:43:07;91669.09;;;10.08;100.00
59274;BME280;45044;41.572;24.730;2023-05-09T08:45:46;91673.28;;;10.16;100.00
59274;BME280;45044;41.572;24.730;2023-05-09T08:48:17;91672.56;;;10.19;100.00
59274;BME280;45044;41.572;24.730;2023-05-09T08:50:44;91672.53;;;10.12;100.00
59274;BME280;45044;41.572;24.730;2023-05-09T08:53:11;91672.50;;;10.09;100.00
59274;BME280;45044;41.572;24.730;2023-05-09T08:55:38;91661.88;;;9.98;100.00
59274;BME280;45044;41.572;24.730;2023-05-09T08:58:05;91661.22;;;10.08;100.00
59274;BME280;45044;41.572;24.730;2023-05-09T09:00:32;91657.50;;;10.13;100.00
59274;BME280;45044;41.572;24.730;2023-05-09T09:03:00;91661.72;;;10.21;100.00
59274;BME280;45044;41.572;24.730;2023-05-09T09:05:30;91656.78;;;10.16;100.00
59274;BME280;45044;41.572;24.730;2023-05-09T09:08:09;91668.00;;;10.13;100.00
59274;BME280;45044;41.572;24.730;2023-05-09T09:10:40;91659.56;;;9.92;100.00
59274;BME280;45044;41.572;24.730;2023-05-09T09:13:13;91661.63;;;10.10;100.00
59274;BME280;45044;41.572;24.730;2023-05-09T09:15:43;91669.91;;;10.16;100.00
59274;BME280;45044;41.572;24.730;2023-05-09T09:18:16;91668.53;;;9.88;100.00
59274;BME280;45044;41.572;24.730;2023-05-09T09:20:48;91655.03;;;9.89;100.00
59274;BME280;45044;41.572;24.730;2023-05-09T09:23:18;91663.16;;;9.77;100.00
59274;BME280;45044;41.572;24.730;2023-05-09T09:25:46;91672.03;;;9.65;100.00
59274;BME280;45044;41.572;24.730;2023-05-09T09:28:15;91669.53;;;9.76;100.00
59274;BME280;45044;41.572;24.730;2023-05-09T09:30:44;91669.22;;;9.81;100.00
59274;BME280;45044;41.572;24.730;2023-05-09T09:33:19;91672.19;;;9.79;100.00
59274;BME280;45044;41.572;24.730;2023-05-09T09:35:48;91664.66;;;9.78;100.00
59274;BME280;45044;41.572;24.730;2023-05-09T09:38:19;91671.03;;;9.77;100.00
59274;BME280;45044;41.572;24.730;2023-05-09T09:40:53;91669.13;;;9.74;100.00
59274;BME280;45044;41.572;24.730;2023-05-09T09:43:31;91678.06;;;9.69;100.00
59274;BME280;45044;41.572;24.730;2023-05-09T09:46:04;91677.25;;;9.61;100.00
59274;BME280;45044;41.572;24.730;2023-05-09T09:48:33;91660.97;;;9.48;100.00
59274;BME280;45044;41.572;24.730;2023-05-09T09:51:10;91678.25;;;9.53;100.00
59274;BME280;45044;41.572;24.730;2023-05-09T09:53:40;91668.41;;;9.42;100.00
59274;BME280;45044;41.572;24.730;2023-05-09T09:56:07;91672.53;;;9.43;100.00
59274;BME280;45044;41.572;24.730;2023-05-09T09:58:40;91669.75;;;9.63;100.00
59274;BME280;45044;41.572;24.730;2023-05-09T10:01:11;91672.94;;;9.80;100.00
59274;BME280;45044;41.572;24.730;2023-05-09T10:03:47;91675.56;;;9.80;100.00
59274;BME280;45044;41.572;24.730;2023-05-09T10:06:15;91681.53;;;9.77;100.00
59274;BME280;45044;41.572;24.730;2023-05-09T10:08:43;91684.75;;;9.63;100.00
59274;BME280;45044;41.572;24.730;2023-05-09T10:11:14;91681.16;;;9.44;100.00
59274;BME280;45044;41.572;24.730;2023-05-09T10:13:42;91680.47;;;9.51;100.00
59274;BME280;45044;41.572;24.730;2023-05-09T10:16:10;91685.44;;;9.56;100.00
59274;BME280;45044;41.572;24.730;2023-05-09T10:18:38;91677.69;;;9.36;100.00
59274;BME280;45044;41.572;24.730;2023-05-09T10:21:07;91680.31;;;9.36;100.00
59274;BME280;45044;41.572;24.730;2023-05-09T10:23:39;91680.16;;;9.52;100.00
59274;BME280;45044;41.572;24.730;2023-05-09T10:26:22;91678.91;;;9.42;100.00
59274;BME280;45044;41.572;24.730;2023-05-09T10:28:58;91687.34;;;9.59;100.00
59274;BME280;45044;41.572;24.730;2023-05-09T10:31:31;91685.34;;;9.49;100.00
59274;BME280;45044;41.572;24.730;2023-05-09T10:34:04;91678.50;;;9.40;100.00
59274;BME280;45044;41.572;24.730;2023-05-09T10:36:35;91688.94;;;9.37;100.00
59274;BME280;45044;41.572;24.730;2023-05-09T10:39:02;91687.06;;;9.37;100.00
59274;BME280;45044;41.572;24.730;2023-05-09T10:41:29;91688.19;;;9.36;100.00
59274;BME280;45044;41.572;24.730;2023-05-09T10:43:57;91681.75;;;9.30;100.00
59274;BME280;45044;41.572;24.730;2023-05-09T10:46:25;91685.25;;;9.41;100.00
59274;BME280;45044;41.572;24.730;2023-05-09T10:48:53;91677.00;;;9.39;100.00
59274;BME280;45044;41.572;24.730;2023-05-09T10:51:20;91680.47;;;9.51;100.00
59274;BME280;45044;41.572;24.730;2023-05-09T10:53:48;91683.78;;;9.44;100.00
59274;BME280;45044;41.572;24.730;2023-05-09T10:56:25;91676.19;;;9.35;100.00
59274;BME280;45044;41.572;24.730;2023-05-09T10:58:54;91677.13;;;9.50;100.00
59274;BME280;45044;41.572;24.730;2023-05-09T11:01:29;91684.19;;;9.46;100.00
59274;BME280;45044;41.572;24.730;2023-05-09T11:03:58;91676.81;;;9.25;100.00
59274;BME280;45044;41.572;24.730;2023-05-09T11:06:48;91681.44;;;9.35;100.00
59274;BME280;45044;41.572;24.730;2023-05-09T11:09:27;91678.56;;;9.48;100.00
59274;BME280;45044;41.572;24.730;2023-05-09T11:11:57;91680.56;;;9.58;100.00
59274;BME280;45044;41.572;24.730;2023-05-09T11:14:44;91684.06;;;9.69;100.00
59274;BME280;45044;41.572;24.730;2023-05-09T11:24:49;91677.50;;;9.83;100.00
59274;BME280;45044;41.572;24.730;2023-05-09T11:27:23;91671.59;;;9.93;100.00
59274;BME280;45044;41.572;24.730;2023-05-09T11:32:20;91677.50;;;9.83;100.00
59274;BME280;45044;41.572;24.730;2023-05-09T11:34:48;91681.59;;;9.84;100.00
59274;BME280;45044;41.572;24.730;2023-05-09T11:37:16;91686.38;;;9.75;100.00
59274;BME280;45044;41.572;24.730;2023-05-09T11:40:00;91678.22;;;9.83;100.00
59274;BME280;45044;41.572;24.730;2023-05-09T11:42:30;91681.94;;;9.79;100.00
59274;BME280;45044;41.572;24.730;2023-05-09T11:44:58;91675.16;;;9.78;100.00
59274;BME280;45044;41.572;24.730;2023-05-09T11:47:35;91678.66;;;9.89;100.00
59274;BME280;45044;41.572;24.730;2023-05-09T11:50:05;91678.00;;;10.00;100.00
59274;BME280;45044;41.572;24.730;2023-05-09T11:52:32;91676.34;;;9.84;100.00
59274;BME280;45044;41.572;24.730;2023-05-09T11:55:01;91675.97;;;9.82;100.00
59274;BME280;45044;41.572;24.730;2023-05-09T11:57:28;91666.72;;;9.96;100.00
59274;BME280;45044;41.572;24.730;2023-05-09T11:59:55;91672.75;;;10.00;100.00
59274;BME280;45044;41.572;24.730;2023-05-09T12:02:22;91678.28;;;9.91;100.00
59274;BME280;45044;41.572;24.730;2023-05-09T12:04:49;91675.19;;;9.81;100.00
59274;BME280;45044;41.572;24.730;2023-05-09T12:07:16;91685.50;;;9.98;100.00
59274;BME280;45044;41.572;24.730;2023-05-09T12:09:44;91677.41;;;9.76;100.00
59274;BME280;45044;41.572;24.730;2023-05-09T12:12:11;91672.31;;;9.90;100.00
59274;BME280;45044;41.572;24.730;2023-05-09T12:14:39;91679.59;;;10.08;100.00
59274;BME280;45044;41.572;24.730;2023-05-09T12:17:06;91675.84;;;10.09;100.00
59274;BME280;45044;41.572;24.730;2023-05-09T12:19:34;91676.91;;;10.01;100.00
59274;BME280;45044;41.572;24.730;2023-05-09T12:22:03;91679.06;;;9.91;100.00
59274;BME280;45044;41.572;24.730;2023-05-09T12:24:34;91671.44;;;9.79;100.00
59274;BME280;45044;41.572;24.730;2023-05-09T12:27:01;91664.72;;;9.85;100.00
59274;BME280;45044;41.572;24.730;2023-05-09T12:29:30;91667.06;;;9.90;100.00
59274;BME280;45044;41.572;24.730;2023-05-09T12:31:58;91662.31;;;9.69;100.00
59274;BME280;45044;41.572;24.730;2023-05-09T12:34:25;91657.88;;;9.73;100.00
59274;BME280;45044;41.572;24.730;2023-05-09T12:36:52;91660.22;;;9.82;100.00
59274;BME280;45044;41.572;24.730;2023-05-09T12:39:20;91663.63;;;9.86;100.00
59274;BME280;45044;41.572;24.730;2023-05-09T12:41:49;91662.69;;;10.05;100.00
59274;BME280;45044;41.572;24.730;2023-05-09T12:44:27;91657.00;;;10.00;100.00
59274;BME280;45044;41.572;24.730;2023-05-09T12:47:00;91649.53;;;10.02;100.00
59274;BME280;45044;41.572;24.730;2023-05-09T12:49:29;91655.50;;;9.99;100.00
59274;BME280;45044;41.572;24.730;2023-05-09T12:51:58;91655.81;;;9.93;100.00
59274;BME280;45044;41.572;24.730;2023-05-09T12:54:29;91655.13;;;10.00;100.00
59274;BME280;45044;41.572;24.730;2023-05-09T12:56:57;91661.19;;;10.04;100.00
59274;BME280;45044;41.572;24.730;2023-05-09T12:59:27;91653.00;;;10.13;100.00
59274;BME280;45044;41.572;24.730;2023-05-09T13:01:58;91652.31;;;10.20;100.00
59274;BME280;45044;41.572;24.730;2023-05-09T13:04:32;91659.81;;;10.22;100.00
59274;BME280;45044;41.572;24.730;2023-05-09T13:06:58;91657.53;;;10.16;100.00
59274;BME280;45044;41.572;24.730;2023-05-09T13:09:26;91652.72;;;10.22;100.00